createdAt,value
2017-10-05T00:00:02.583Z,12.61
2017-10-05T00:01:02.544Z,12.58
2017-10-05T00:02:02.556Z,12.58
2017-10-05T00:03:02.580Z,12.58
2017-10-05T00:04:02.560Z,12.58
2017-10-05T00:05:02.589Z,12.58
2017-10-05T00:06:02.593Z,12.55
2017-10-05T00:07:02.545Z,12.53
2017-10-05T00:08:02.516Z,12.50
2017-10-05T00:09:02.545Z,12.48
2017-10-05T00:10:02.546Z,12.46
2017-10-05T00:11:02.520Z,12.46
2017-10-05T00:12:02.563Z,12.44
2017-10-05T00:13:02.604Z,12.44
2017-10-05T00:14:02.551Z,12.43
2017-10-05T00:15:02.549Z,12.42
2017-10-05T00:16:02.628Z,12.40
2017-10-05T00:17:02.628Z,12.40
2017-10-05T00:18:02.561Z,12.39
2017-10-05T00:19:02.513Z,12.42
2017-10-05T00:20:02.558Z,12.43
2017-10-05T00:21:02.558Z,12.40
2017-10-05T00:22:02.636Z,12.39
2017-10-05T00:23:02.613Z,12.37
2017-10-05T00:24:02.604Z,12.35
2017-10-05T00:25:02.615Z,12.35
2017-10-05T00:26:02.559Z,12.35
2017-10-05T00:27:02.632Z,12.35
2017-10-05T00:28:02.635Z,12.35
2017-10-05T00:29:02.561Z,12.33
2017-10-05T00:30:02.723Z,12.32
2017-10-05T00:31:02.613Z,12.32
2017-10-05T00:32:02.578Z,12.31
2017-10-05T00:33:02.613Z,12.32
2017-10-05T00:34:02.612Z,12.35
2017-10-05T00:35:02.520Z,12.37
2017-10-05T00:36:02.613Z,12.37
2017-10-05T00:37:02.588Z,12.42
2017-10-05T00:38:02.524Z,12.40
2017-10-05T00:39:02.524Z,12.40
2017-10-05T00:40:02.569Z,12.40
2017-10-05T00:41:02.594Z,12.40
2017-10-05T00:42:02.620Z,12.39
2017-10-05T00:43:02.620Z,12.37
2017-10-05T00:44:02.614Z,12.39
2017-10-05T00:45:02.577Z,12.37
2017-10-05T00:46:02.570Z,12.37
2017-10-05T00:47:02.618Z,12.35
2017-10-05T00:48:02.574Z,12.32
2017-10-05T00:49:02.528Z,12.31
2017-10-05T00:50:02.575Z,12.28
2017-10-05T00:51:02.577Z,12.29
2017-10-05T00:52:02.534Z,12.26
2017-10-05T00:53:02.626Z,12.28
2017-10-05T00:54:02.591Z,12.26
2017-10-05T00:55:02.622Z,12.24
2017-10-05T00:56:02.621Z,12.21
2017-10-05T00:57:02.596Z,12.18
2017-10-05T00:58:02.525Z,12.18
2017-10-05T00:59:02.557Z,12.18
2017-10-05T01:00:02.529Z,12.16
2017-10-05T01:01:02.524Z,12.16
2017-10-05T01:02:02.577Z,12.18
2017-10-05T01:03:02.574Z,12.20
2017-10-05T01:04:02.594Z,12.18
2017-10-05T01:05:02.550Z,12.16
2017-10-05T01:06:02.566Z,12.14
2017-10-05T01:07:02.612Z,12.16
2017-10-05T01:08:02.650Z,12.14
2017-10-05T01:09:02.632Z,12.16
2017-10-05T01:10:02.587Z,12.16
2017-10-05T01:11:02.634Z,12.14
2017-10-05T01:12:02.601Z,12.14
2017-10-05T01:13:02.652Z,12.14
2017-10-05T01:14:02.554Z,12.13
2017-10-05T01:15:02.559Z,12.12
2017-10-05T01:16:02.591Z,12.10
2017-10-05T01:17:02.558Z,12.10
2017-10-05T01:18:02.529Z,12.12
2017-10-05T01:19:02.619Z,12.10
2017-10-05T01:20:02.597Z,12.10
2017-10-05T01:21:02.533Z,12.09
2017-10-05T01:22:02.604Z,12.08
2017-10-05T01:23:02.538Z,12.08
2017-10-05T01:24:02.598Z,12.06
2017-10-05T01:25:02.641Z,12.05
2017-10-05T01:26:02.598Z,12.06
2017-10-05T01:27:02.547Z,12.05
2017-10-05T01:28:02.598Z,12.05
2017-10-05T01:29:02.602Z,12.03
2017-10-05T01:30:02.601Z,12.03
2017-10-05T01:31:02.583Z,12.02
2017-10-05T01:32:02.603Z,12.01
2017-10-05T01:33:02.651Z,12.02
2017-10-05T01:34:02.649Z,12.01
2017-10-05T01:35:02.606Z,12.01
2017-10-05T01:36:02.604Z,11.98
2017-10-05T01:37:02.650Z,11.98
2017-10-05T01:38:02.653Z,11.97
2017-10-05T01:39:02.681Z,11.97
2017-10-05T01:40:02.604Z,11.95
2017-10-05T01:41:02.651Z,11.94
2017-10-05T01:42:02.655Z,11.94
2017-10-05T01:43:02.607Z,11.94
2017-10-05T01:44:02.500Z,11.94
2017-10-05T01:45:02.705Z,11.94
2017-10-05T01:46:02.572Z,11.92
2017-10-05T01:47:02.575Z,11.94
2017-10-05T01:48:02.544Z,11.92
2017-10-05T01:49:02.620Z,11.94
2017-10-05T01:50:02.597Z,11.92
2017-10-05T01:51:02.532Z,11.87
2017-10-05T01:52:02.699Z,11.87
2017-10-05T01:53:02.581Z,11.83
2017-10-05T01:54:02.661Z,11.82
2017-10-05T01:55:02.616Z,11.79
2017-10-05T01:56:02.616Z,11.78
2017-10-05T01:57:02.669Z,11.73
2017-10-05T01:58:02.633Z,11.71
2017-10-05T01:59:02.627Z,11.68
2017-10-05T02:00:02.666Z,11.67
2017-10-05T02:01:02.599Z,11.64
2017-10-05T02:02:02.620Z,11.60
2017-10-05T02:03:02.573Z,11.58
2017-10-05T02:04:02.695Z,11.57
2017-10-05T02:05:02.665Z,11.56
2017-10-05T02:06:02.670Z,11.56
2017-10-05T02:07:02.572Z,11.54
2017-10-05T02:08:02.621Z,11.54
2017-10-05T02:09:02.629Z,11.56
2017-10-05T02:10:02.582Z,11.53
2017-10-05T02:11:02.578Z,11.51
2017-10-05T02:12:02.672Z,11.51
2017-10-05T02:13:02.690Z,11.53
2017-10-05T02:14:02.552Z,11.51
2017-10-05T02:15:02.562Z,11.50
2017-10-05T02:16:02.568Z,11.49
2017-10-05T02:17:02.579Z,11.49
2017-10-05T02:18:02.568Z,11.47
2017-10-05T02:19:02.509Z,11.45
2017-10-05T02:20:02.509Z,11.43
2017-10-05T02:21:02.568Z,11.40
2017-10-05T02:22:02.559Z,11.40
2017-10-05T02:23:02.519Z,11.38
2017-10-05T02:24:02.683Z,11.36
2017-10-05T02:25:02.635Z,11.31
2017-10-05T02:26:02.632Z,11.27
2017-10-05T02:27:02.663Z,11.22
2017-10-05T02:28:02.736Z,11.20
2017-10-05T02:29:02.679Z,11.17
2017-10-05T02:30:02.643Z,11.13
2017-10-05T02:31:02.616Z,11.10
2017-10-05T02:32:02.704Z,11.07
2017-10-05T02:33:02.618Z,11.06
2017-10-05T02:34:02.602Z,11.03
2017-10-05T02:35:02.652Z,11.02
2017-10-05T02:36:02.683Z,10.97
2017-10-05T02:37:02.650Z,10.94
2017-10-05T02:38:02.639Z,10.94
2017-10-05T02:39:02.592Z,10.93
2017-10-05T02:40:02.685Z,10.90
2017-10-05T02:41:02.620Z,10.88
2017-10-05T02:42:02.710Z,10.87
2017-10-05T02:43:02.644Z,10.86
2017-10-05T02:44:02.577Z,10.84
2017-10-05T02:45:02.579Z,10.83
2017-10-05T02:46:02.610Z,10.80
2017-10-05T02:47:02.608Z,10.77
2017-10-05T02:48:02.582Z,10.74
2017-10-05T02:49:02.583Z,10.71
2017-10-05T02:50:02.589Z,10.68
2017-10-05T02:51:02.584Z,10.67
2017-10-05T02:52:02.586Z,10.64
2017-10-05T02:53:02.588Z,10.63
2017-10-05T02:54:02.694Z,10.63
2017-10-05T02:55:02.694Z,10.60
2017-10-05T02:56:02.648Z,10.60
2017-10-05T02:57:02.633Z,10.58
2017-10-05T02:58:02.700Z,10.57
2017-10-05T02:59:02.649Z,10.53
2017-10-05T03:00:02.650Z,10.52
2017-10-05T03:01:02.602Z,10.50
2017-10-05T03:02:02.696Z,10.49
2017-10-05T03:03:02.650Z,10.46
2017-10-05T03:04:02.657Z,10.46
2017-10-05T03:05:02.611Z,10.43
2017-10-05T03:06:02.708Z,10.41
2017-10-05T03:07:02.615Z,10.41
2017-10-05T03:08:02.655Z,10.39
2017-10-05T03:09:02.622Z,10.39
2017-10-05T03:10:02.639Z,10.38
2017-10-05T03:11:02.702Z,10.38
2017-10-05T03:12:02.658Z,10.36
2017-10-05T03:13:02.663Z,10.35
2017-10-05T03:14:02.662Z,10.35
2017-10-05T03:15:02.747Z,10.34
2017-10-05T03:16:02.692Z,10.34
2017-10-05T03:17:02.665Z,10.34
2017-10-05T03:18:02.694Z,10.34
2017-10-05T03:19:02.709Z,10.35
2017-10-05T03:20:02.661Z,10.34
2017-10-05T03:21:02.709Z,10.32
2017-10-05T03:22:02.735Z,10.31
2017-10-05T03:23:02.710Z,10.30
2017-10-05T03:24:02.599Z,10.31
2017-10-05T03:25:02.629Z,10.32
2017-10-05T03:26:02.632Z,10.31
2017-10-05T03:27:02.634Z,10.31
2017-10-05T03:28:02.631Z,10.31
2017-10-05T03:29:02.609Z,10.31
2017-10-05T03:30:02.612Z,10.31
2017-10-05T03:31:02.609Z,10.31
2017-10-05T03:32:02.669Z,10.32
2017-10-05T03:33:02.611Z,10.31
2017-10-05T03:34:02.689Z,10.30
2017-10-05T03:35:02.687Z,10.30
2017-10-05T03:36:02.625Z,10.31
2017-10-05T03:37:02.670Z,10.31
2017-10-05T03:38:02.724Z,10.31
2017-10-05T03:39:02.678Z,10.31
2017-10-05T03:40:02.683Z,10.30
2017-10-05T03:41:02.750Z,10.30
2017-10-05T03:42:02.726Z,10.30
2017-10-05T03:43:02.725Z,10.30
2017-10-05T03:44:02.678Z,10.28
2017-10-05T03:45:02.680Z,10.28
2017-10-05T03:46:02.677Z,10.27
2017-10-05T03:47:02.681Z,10.28
2017-10-05T03:48:02.643Z,10.28
2017-10-05T03:49:02.648Z,10.30
2017-10-05T03:50:02.650Z,10.30
2017-10-05T03:51:02.647Z,10.28
2017-10-05T03:52:02.648Z,10.27
2017-10-05T03:53:02.629Z,10.28
2017-10-05T03:54:02.712Z,10.27
2017-10-05T03:55:02.651Z,10.25
2017-10-05T03:56:02.665Z,10.27
2017-10-05T03:57:02.686Z,10.27
2017-10-05T03:58:02.685Z,10.27
2017-10-05T03:59:02.699Z,10.25
2017-10-05T04:00:02.739Z,10.25
2017-10-05T04:01:02.691Z,10.25
2017-10-05T04:02:02.831Z,10.25
2017-10-05T04:03:02.739Z,10.25
2017-10-05T04:04:02.663Z,10.25
2017-10-05T04:05:02.685Z,10.25
2017-10-05T04:06:02.696Z,10.24
2017-10-05T04:07:02.657Z,10.23
2017-10-05T04:08:02.653Z,10.24
2017-10-05T04:09:02.687Z,10.23
2017-10-05T04:10:02.701Z,10.23
2017-10-05T04:11:02.730Z,10.24
2017-10-05T04:12:02.727Z,10.23
2017-10-05T04:13:02.699Z,10.23
2017-10-05T04:14:02.665Z,10.23
2017-10-05T04:15:02.744Z,10.23
2017-10-05T04:16:02.663Z,10.21
2017-10-05T04:17:02.652Z,10.21
2017-10-05T04:18:02.698Z,10.23
2017-10-05T04:19:02.715Z,10.21
2017-10-05T04:20:02.682Z,10.23
2017-10-05T04:21:02.670Z,10.23
2017-10-05T04:22:02.707Z,10.23
2017-10-05T04:23:02.655Z,10.24
2017-10-05T04:24:02.700Z,10.24
2017-10-05T04:25:02.747Z,10.24
2017-10-05T04:26:02.751Z,10.24
2017-10-05T04:27:02.659Z,10.24
2017-10-05T04:28:02.708Z,10.24
2017-10-05T04:29:02.666Z,10.24
2017-10-05T04:30:02.686Z,10.24
2017-10-05T04:31:02.712Z,10.25
2017-10-05T04:32:02.706Z,10.25
2017-10-05T04:33:02.727Z,10.27
2017-10-05T04:34:02.705Z,10.25
2017-10-05T04:35:02.758Z,10.25
2017-10-05T04:36:02.722Z,10.25
2017-10-05T04:37:02.757Z,10.25
2017-10-05T04:38:02.657Z,10.25
2017-10-05T04:39:02.713Z,10.25
2017-10-05T04:40:02.720Z,10.24
2017-10-05T04:41:02.661Z,10.24
2017-10-05T04:42:02.693Z,10.25
2017-10-05T04:43:02.757Z,10.25
2017-10-05T04:44:02.714Z,10.25
2017-10-05T04:45:02.688Z,10.25
2017-10-05T04:46:02.749Z,10.25
2017-10-05T04:47:02.665Z,10.24
2017-10-05T04:48:02.721Z,10.25
2017-10-05T04:49:02.713Z,10.25
2017-10-05T04:50:02.755Z,10.27
2017-10-05T04:51:02.696Z,10.27
2017-10-05T04:52:02.757Z,10.27
2017-10-05T04:53:02.697Z,10.28
2017-10-05T04:54:02.695Z,10.28
2017-10-05T04:55:02.756Z,10.30
2017-10-05T04:56:02.753Z,10.30
2017-10-05T04:57:02.749Z,10.31
2017-10-05T04:58:02.739Z,10.28
2017-10-05T04:59:02.693Z,10.31
2017-10-05T05:00:02.754Z,10.31
2017-10-05T05:01:02.762Z,10.31
2017-10-05T05:02:02.758Z,10.32
2017-10-05T05:03:02.699Z,10.32
2017-10-05T05:04:02.668Z,10.30
2017-10-05T05:05:02.665Z,10.30
2017-10-05T05:06:02.690Z,10.30
2017-10-05T05:07:02.781Z,10.30
2017-10-05T05:08:02.726Z,10.28
2017-10-05T05:09:02.693Z,10.28
2017-10-05T05:10:02.784Z,10.30
2017-10-05T05:11:02.669Z,10.31
2017-10-05T05:12:02.726Z,10.30
2017-10-05T05:13:02.734Z,10.30
2017-10-05T05:14:02.665Z,10.28
2017-10-05T05:15:02.734Z,10.28
2017-10-05T05:16:02.781Z,10.30
2017-10-05T05:17:02.807Z,10.28
2017-10-05T05:18:02.738Z,10.28
2017-10-05T05:19:02.699Z,10.30
2017-10-05T05:20:02.715Z,10.28
2017-10-05T05:21:02.718Z,10.28
2017-10-05T05:22:02.736Z,10.28
2017-10-05T05:23:02.690Z,10.28
2017-10-05T05:24:02.736Z,10.31
2017-10-05T05:25:02.722Z,10.31
2017-10-05T05:26:02.741Z,10.31
2017-10-05T05:27:02.736Z,10.31
2017-10-05T05:28:02.756Z,10.32
2017-10-05T05:29:02.787Z,10.34
2017-10-05T05:30:02.784Z,10.35
2017-10-05T05:31:02.757Z,10.35
2017-10-05T05:32:02.791Z,10.36
2017-10-05T05:33:02.743Z,10.35
2017-10-05T05:34:02.697Z,10.35
2017-10-05T05:35:02.743Z,10.36
2017-10-05T05:36:02.729Z,10.36
2017-10-05T05:37:02.744Z,10.38
2017-10-05T05:38:02.794Z,10.38
2017-10-05T05:39:02.738Z,10.38
2017-10-05T05:40:02.801Z,10.36
2017-10-05T05:41:02.695Z,10.38
2017-10-05T05:42:02.751Z,10.41
2017-10-05T05:43:02.749Z,10.42
2017-10-05T05:44:02.749Z,10.42
2017-10-05T05:45:02.765Z,10.45
2017-10-05T05:46:02.688Z,10.45
2017-10-05T05:47:02.711Z,10.47
2017-10-05T05:48:02.715Z,10.47
2017-10-05T05:49:02.689Z,10.49
2017-10-05T05:50:02.693Z,10.49
2017-10-05T05:51:02.719Z,10.49
2017-10-05T05:52:02.717Z,10.49
2017-10-05T05:53:02.755Z,10.50
2017-10-05T05:54:02.753Z,10.52
2017-10-05T05:55:02.727Z,10.52
2017-10-05T05:56:02.829Z,10.52
2017-10-05T05:57:02.801Z,10.53
2017-10-05T05:58:02.766Z,10.56
2017-10-05T05:59:02.802Z,10.56
2017-10-05T06:00:02.809Z,10.56
2017-10-05T06:01:02.710Z,10.57
2017-10-05T06:02:02.766Z,10.57
2017-10-05T06:03:02.809Z,10.58
2017-10-05T06:04:02.762Z,10.58
2017-10-05T06:05:02.711Z,10.60
2017-10-05T06:06:02.769Z,10.60
2017-10-05T06:07:02.774Z,10.60
2017-10-05T06:08:02.766Z,10.63
2017-10-05T06:09:02.728Z,10.61
2017-10-05T06:10:02.802Z,10.61
2017-10-05T06:11:02.706Z,10.61
2017-10-05T06:12:02.741Z,10.63
2017-10-05T06:13:02.800Z,10.61
2017-10-05T06:14:02.737Z,10.63
2017-10-05T06:15:02.743Z,10.63
2017-10-05T06:16:02.735Z,10.64
2017-10-05T06:17:02.710Z,10.64
2017-10-05T06:18:02.809Z,10.67
2017-10-05T06:19:02.785Z,10.65
2017-10-05T06:20:02.747Z,10.67
2017-10-05T06:21:02.780Z,10.68
2017-10-05T06:22:02.809Z,10.68
2017-10-05T06:23:02.807Z,10.69
2017-10-05T06:24:02.713Z,10.69
2017-10-05T06:25:02.815Z,10.72
2017-10-05T06:26:02.754Z,10.72
2017-10-05T06:27:02.758Z,10.72
2017-10-05T06:28:02.775Z,10.74
2017-10-05T06:29:02.829Z,10.75
2017-10-05T06:30:02.827Z,10.79
2017-10-05T06:31:02.824Z,10.79
2017-10-05T06:32:02.760Z,10.77
2017-10-05T06:33:02.805Z,10.79
2017-10-05T06:34:02.725Z,10.79
2017-10-05T06:35:02.715Z,10.80
2017-10-05T06:36:02.710Z,10.80
2017-10-05T06:37:02.714Z,10.80
2017-10-05T06:38:02.744Z,10.80
2017-10-05T06:39:02.715Z,10.79
2017-10-05T06:40:02.745Z,10.80
2017-10-05T06:41:02.743Z,10.81
2017-10-05T06:42:02.716Z,10.81
2017-10-05T06:43:02.783Z,10.81
2017-10-05T06:44:02.718Z,10.81
2017-10-05T06:45:02.751Z,10.81
2017-10-05T06:46:02.755Z,10.86
2017-10-05T06:47:02.786Z,10.87
2017-10-05T06:48:02.786Z,10.88
2017-10-05T06:49:02.765Z,10.90
2017-10-05T06:50:02.826Z,10.90
2017-10-05T06:51:02.755Z,10.90
2017-10-05T06:52:02.735Z,10.91
2017-10-05T06:53:02.828Z,10.91
2017-10-05T06:54:02.736Z,10.93
2017-10-05T06:55:02.749Z,10.93
2017-10-05T06:56:02.726Z,10.94
2017-10-05T06:57:02.727Z,10.94
2017-10-05T06:58:02.753Z,10.93
2017-10-05T06:59:02.752Z,10.94
2017-10-05T07:00:02.792Z,10.95
2017-10-05T07:01:02.726Z,10.97
2017-10-05T07:02:02.796Z,10.97
2017-10-05T07:03:02.726Z,11.00
2017-10-05T07:04:02.734Z,11.00
2017-10-05T07:05:02.869Z,11.00
2017-10-05T07:06:02.830Z,11.03
2017-10-05T07:07:02.812Z,11.05
2017-10-05T07:08:02.841Z,11.07
2017-10-05T07:09:02.737Z,11.10
2017-10-05T07:10:02.833Z,11.09
2017-10-05T07:11:02.748Z,11.09
2017-10-05T07:12:02.841Z,11.09
2017-10-05T07:13:02.781Z,11.09
2017-10-05T07:14:02.762Z,11.10
2017-10-05T07:15:02.818Z,11.14
2017-10-05T07:16:02.802Z,11.14
2017-10-05T07:17:02.841Z,11.16
2017-10-05T07:18:02.811Z,11.18
2017-10-05T07:19:02.831Z,11.18
2017-10-05T07:20:02.745Z,11.21
2017-10-05T07:21:02.775Z,11.24
2017-10-05T07:22:02.786Z,11.24
2017-10-05T07:23:02.807Z,11.27
2017-10-05T07:24:02.767Z,11.29
2017-10-05T07:25:02.844Z,11.29
2017-10-05T07:26:02.788Z,11.29
2017-10-05T07:27:02.772Z,11.33
2017-10-05T07:28:02.843Z,11.35
2017-10-05T07:29:02.807Z,11.35
2017-10-05T07:30:02.799Z,11.35
2017-10-05T07:31:02.847Z,11.36
2017-10-05T07:32:02.819Z,11.40
2017-10-05T07:33:02.852Z,11.43
2017-10-05T07:34:02.809Z,11.46
2017-10-05T07:35:02.837Z,11.49
2017-10-05T07:36:02.902Z,11.51
2017-10-05T07:37:02.836Z,11.51
2017-10-05T07:38:02.819Z,11.53
2017-10-05T07:39:02.764Z,11.56
2017-10-05T07:40:02.829Z,11.57
2017-10-05T07:41:02.883Z,11.58
2017-10-05T07:42:02.868Z,11.60
2017-10-05T07:43:02.862Z,11.62
2017-10-05T07:44:02.778Z,11.64
2017-10-05T07:45:02.847Z,11.64
2017-10-05T07:46:02.761Z,11.62
2017-10-05T07:47:02.822Z,11.62
2017-10-05T07:48:02.832Z,11.64
2017-10-05T07:49:02.794Z,11.64
2017-10-05T07:50:02.826Z,11.65
2017-10-05T07:51:02.836Z,11.65
2017-10-05T07:52:02.838Z,11.67
2017-10-05T07:53:02.801Z,11.67
2017-10-05T07:54:02.832Z,11.69
2017-10-05T07:55:02.769Z,11.69
2017-10-05T07:56:02.772Z,11.69
2017-10-05T07:57:02.871Z,11.72
2017-10-05T07:58:02.821Z,11.71
2017-10-05T07:59:02.809Z,11.71
2017-10-05T08:00:02.772Z,11.71
2017-10-05T08:01:02.801Z,11.68
2017-10-05T08:02:02.863Z,11.68
2017-10-05T08:03:02.802Z,11.68
2017-10-05T08:04:02.774Z,11.68
2017-10-05T08:05:02.778Z,11.69
2017-10-05T08:06:02.840Z,11.69
2017-10-05T08:07:02.873Z,11.69
2017-10-05T08:08:02.781Z,11.68
2017-10-05T08:09:02.775Z,11.68
2017-10-05T08:10:02.783Z,11.69
2017-10-05T08:11:02.886Z,11.71
2017-10-05T08:12:02.890Z,11.71
2017-10-05T08:13:02.879Z,11.72
2017-10-05T08:14:02.791Z,11.75
2017-10-05T08:15:02.804Z,11.76
2017-10-05T08:16:02.818Z,11.78
2017-10-05T08:17:02.843Z,11.82
2017-10-05T08:18:02.855Z,11.83
2017-10-05T08:19:02.836Z,11.83
2017-10-05T08:20:02.852Z,11.82
2017-10-05T08:21:02.821Z,11.83
2017-10-05T08:22:02.821Z,11.84
2017-10-05T08:23:02.808Z,11.83
2017-10-05T08:24:02.875Z,11.87
2017-10-05T08:25:02.790Z,11.89
2017-10-05T08:26:02.850Z,11.91
2017-10-05T08:27:02.878Z,11.92
2017-10-05T08:28:02.787Z,11.94
2017-10-05T08:29:02.840Z,11.95
2017-10-05T08:30:02.914Z,11.95
2017-10-05T08:31:02.877Z,11.97
2017-10-05T08:32:02.839Z,11.98
2017-10-05T08:33:02.880Z,11.98
2017-10-05T08:34:02.795Z,11.99
2017-10-05T08:35:02.900Z,12.01
2017-10-05T08:36:02.818Z,12.02
2017-10-05T08:37:02.922Z,12.05
2017-10-05T08:38:02.847Z,12.05
2017-10-05T08:39:02.832Z,12.08
2017-10-05T08:40:02.840Z,12.08
2017-10-05T08:41:02.831Z,12.09
2017-10-05T08:42:02.801Z,12.09
2017-10-05T08:43:02.801Z,12.13
2017-10-05T08:44:02.838Z,12.16
2017-10-05T08:45:02.920Z,12.16
2017-10-05T08:46:02.856Z,12.18
2017-10-05T08:47:02.905Z,12.21
2017-10-05T08:48:02.905Z,12.22
2017-10-05T08:49:02.843Z,12.22
2017-10-05T08:50:02.855Z,12.25
2017-10-05T08:51:02.907Z,12.28
2017-10-05T08:52:02.861Z,12.29
2017-10-05T08:53:02.860Z,12.32
2017-10-05T08:54:02.904Z,12.33
2017-10-05T08:55:02.859Z,12.35
2017-10-05T08:56:02.814Z,12.36
2017-10-05T08:57:02.794Z,12.36
2017-10-05T08:58:02.861Z,12.36
2017-10-05T08:59:02.857Z,12.37
2017-10-05T09:00:02.797Z,12.37
2017-10-05T09:01:02.828Z,12.37
2017-10-05T09:02:02.865Z,12.40
2017-10-05T09:03:02.859Z,12.47
2017-10-05T09:04:02.865Z,12.51
2017-10-05T09:05:02.846Z,12.55
2017-10-05T09:06:02.898Z,12.55
2017-10-05T09:07:02.875Z,12.58
2017-10-05T09:08:02.831Z,12.60
2017-10-05T09:09:02.921Z,12.62
2017-10-05T09:10:02.823Z,12.62
2017-10-05T09:11:02.820Z,12.62
2017-10-05T09:12:02.852Z,12.65
2017-10-05T09:13:02.917Z,12.68
2017-10-05T09:14:02.817Z,12.68
2017-10-05T09:15:02.874Z,12.68
2017-10-05T09:16:02.922Z,12.71
2017-10-05T09:17:02.941Z,12.72
2017-10-05T09:18:02.860Z,12.73
2017-10-05T09:19:02.873Z,12.75
2017-10-05T09:20:02.881Z,12.75
2017-10-05T09:21:02.902Z,12.75
2017-10-05T09:22:02.934Z,12.73
2017-10-05T09:23:02.929Z,12.82
2017-10-05T09:24:02.861Z,12.80
2017-10-05T09:25:02.879Z,12.83
2017-10-05T09:26:02.874Z,12.84
2017-10-05T09:27:02.818Z,12.84
2017-10-05T09:28:02.844Z,12.89
2017-10-05T09:29:02.880Z,12.91
2017-10-05T09:30:02.844Z,12.96
2017-10-05T09:31:02.883Z,12.99
2017-10-05T09:32:02.882Z,13.03
2017-10-05T09:33:02.846Z,13.12
2017-10-05T09:34:02.848Z,13.20
2017-10-05T09:35:02.904Z,13.24
2017-10-05T09:36:02.915Z,13.35
2017-10-05T09:37:02.829Z,13.46
2017-10-05T09:38:02.894Z,13.50
2017-10-05T09:39:02.897Z,13.54
2017-10-05T09:40:02.890Z,13.57
2017-10-05T09:41:02.852Z,13.61
2017-10-05T09:42:02.837Z,13.65
2017-10-05T09:43:02.926Z,13.69
2017-10-05T09:44:02.917Z,13.75
2017-10-05T09:45:02.903Z,13.81
2017-10-05T09:46:02.921Z,13.89
2017-10-05T09:47:02.873Z,13.93
2017-10-05T09:48:02.934Z,13.99
2017-10-05T09:49:02.875Z,13.99
2017-10-05T09:50:02.925Z,13.98
2017-10-05T09:51:02.934Z,13.99
2017-10-05T09:52:02.939Z,14.00
2017-10-05T09:53:02.938Z,14.09
2017-10-05T09:54:02.925Z,14.10
2017-10-05T09:55:02.897Z,14.07
2017-10-05T09:56:02.860Z,14.10
2017-10-05T09:57:02.866Z,14.11
2017-10-05T09:58:02.836Z,14.14
2017-10-05T09:59:02.898Z,14.17
2017-10-05T10:00:02.836Z,14.25
2017-10-05T10:01:02.837Z,14.31
2017-10-05T10:02:02.907Z,14.35
2017-10-05T10:03:02.902Z,14.35
2017-10-05T10:04:02.864Z,14.36
2017-10-05T10:05:02.869Z,14.35
2017-10-05T10:06:02.901Z,14.39
2017-10-05T10:07:02.902Z,14.40
2017-10-05T10:08:02.868Z,14.44
2017-10-05T10:09:02.887Z,14.47
2017-10-05T10:10:02.903Z,14.51
2017-10-05T10:11:02.868Z,14.58
2017-10-05T10:12:02.844Z,14.65
2017-10-05T10:13:02.845Z,14.68
2017-10-05T10:14:02.845Z,14.69
2017-10-05T10:15:02.917Z,14.69
2017-10-05T10:16:02.888Z,14.69
2017-10-05T10:17:02.865Z,14.69
2017-10-05T10:18:02.965Z,14.69
2017-10-05T10:19:02.897Z,14.69
2017-10-05T10:20:02.893Z,14.68
2017-10-05T10:21:02.913Z,14.69
2017-10-05T10:22:02.901Z,14.68
2017-10-05T10:23:02.915Z,14.65
2017-10-05T10:24:02.928Z,14.65
2017-10-05T10:25:02.956Z,14.64
2017-10-05T10:26:02.962Z,14.61
2017-10-05T10:27:02.922Z,14.61
2017-10-05T10:28:02.918Z,14.61
2017-10-05T10:29:02.935Z,14.55
2017-10-05T10:30:02.920Z,14.54
2017-10-05T10:31:02.950Z,14.51
2017-10-05T10:32:02.917Z,14.47
2017-10-05T10:33:02.923Z,14.47
2017-10-05T10:34:02.930Z,14.46
2017-10-05T10:35:02.973Z,14.43
2017-10-05T10:36:02.898Z,14.39
2017-10-05T10:37:02.907Z,14.38
2017-10-05T10:38:02.904Z,14.33
2017-10-05T10:39:02.968Z,14.29
2017-10-05T10:40:02.931Z,14.28
2017-10-05T10:41:02.939Z,14.25
2017-10-05T10:42:02.943Z,14.21
2017-10-05T10:43:02.937Z,14.22
2017-10-05T10:44:02.976Z,14.22
2017-10-05T10:45:02.994Z,14.22
2017-10-05T10:46:02.929Z,14.27
2017-10-05T10:47:02.941Z,14.29
2017-10-05T10:48:02.931Z,14.32
2017-10-05T10:49:02.879Z,14.35
2017-10-05T10:50:02.915Z,14.38
2017-10-05T10:51:02.948Z,14.40
2017-10-05T10:52:02.977Z,14.40
2017-10-05T10:53:03.001Z,14.39
2017-10-05T10:54:02.915Z,14.38
2017-10-05T10:55:02.882Z,14.40
2017-10-05T10:56:02.975Z,14.47
2017-10-05T10:57:03.000Z,14.49
2017-10-05T10:58:02.979Z,14.51
2017-10-05T10:59:02.921Z,14.49
2017-10-05T11:00:02.950Z,14.47
2017-10-05T11:01:02.943Z,14.43
2017-10-05T11:02:02.938Z,14.42
2017-10-05T11:03:02.920Z,14.44
2017-10-05T11:04:02.993Z,14.46
2017-10-05T11:05:02.879Z,14.51
2017-10-05T11:06:02.885Z,14.60
2017-10-05T11:07:02.884Z,14.62
2017-10-05T11:08:02.886Z,14.65
2017-10-05T11:09:02.889Z,14.64
2017-10-05T11:10:02.894Z,14.66
2017-10-05T11:11:02.897Z,14.66
2017-10-05T11:12:02.910Z,14.61
2017-10-05T11:13:02.909Z,14.55
2017-10-05T11:14:02.861Z,14.49
2017-10-05T11:15:02.893Z,14.44
2017-10-05T11:16:02.992Z,14.40
2017-10-05T11:17:03.006Z,14.46
2017-10-05T11:18:02.950Z,14.51
2017-10-05T11:19:02.925Z,14.55
2017-10-05T11:20:02.995Z,14.53
2017-10-05T11:21:02.948Z,14.62
2017-10-05T11:22:02.997Z,14.66
2017-10-05T11:23:03.020Z,14.64
2017-10-05T11:24:02.916Z,14.68
2017-10-05T11:25:02.947Z,14.62
2017-10-05T11:26:02.998Z,14.71
2017-10-05T11:27:02.956Z,14.89
2017-10-05T11:28:03.000Z,15.06
2017-10-05T11:29:03.005Z,15.17
2017-10-05T11:30:03.000Z,15.31
2017-10-05T11:31:03.008Z,15.44
2017-10-05T11:32:02.936Z,15.55
2017-10-05T11:33:03.008Z,15.62
2017-10-05T11:34:02.938Z,15.70
2017-10-05T11:35:02.967Z,15.68
2017-10-05T11:36:02.940Z,15.64
2017-10-05T11:37:02.954Z,15.70
2017-10-05T11:38:02.934Z,15.76
2017-10-05T11:39:02.939Z,15.62
2017-10-05T11:40:02.969Z,15.62
2017-10-05T11:41:02.939Z,15.64
2017-10-05T11:42:02.903Z,15.64
2017-10-05T11:43:02.928Z,15.47
2017-10-05T11:44:02.972Z,15.44
2017-10-05T11:45:02.967Z,15.42
2017-10-05T11:46:03.017Z,15.36
2017-10-05T11:47:02.925Z,15.33
2017-10-05T11:48:02.960Z,15.29
2017-10-05T11:49:02.975Z,15.28
2017-10-05T11:50:02.942Z,15.19
2017-10-05T11:51:02.968Z,15.17
2017-10-05T11:52:02.970Z,15.15
2017-10-05T11:53:03.012Z,15.15
2017-10-05T11:54:02.995Z,15.11
2017-10-05T11:55:02.980Z,15.10
2017-10-05T11:56:02.975Z,15.13
2017-10-05T11:57:02.917Z,15.11
2017-10-05T11:58:03.004Z,15.11
2017-10-05T11:59:02.988Z,15.08
2017-10-05T12:00:02.996Z,15.11
2017-10-05T12:01:02.972Z,15.17
2017-10-05T12:02:02.980Z,15.25
2017-10-05T12:03:03.017Z,15.26
2017-10-05T12:04:02.962Z,15.11
2017-10-05T12:05:02.997Z,14.95
2017-10-05T12:06:03.005Z,14.78
2017-10-05T12:07:02.924Z,14.64
2017-10-05T12:08:02.983Z,14.66
2017-10-05T12:09:02.960Z,14.66
2017-10-05T12:10:03.024Z,14.61
2017-10-05T12:11:02.945Z,14.44
2017-10-05T12:12:03.029Z,14.39
2017-10-05T12:13:03.019Z,14.29
2017-10-05T12:14:03.031Z,14.20
2017-10-05T12:15:02.978Z,14.11
2017-10-05T12:16:02.987Z,14.07
2017-10-05T12:17:02.990Z,14.02
2017-10-05T12:18:03.007Z,13.99
2017-10-05T12:19:03.038Z,13.89
2017-10-05T12:20:03.136Z,13.72
2017-10-05T12:21:02.988Z,13.59
2017-10-05T12:22:02.983Z,13.45
2017-10-05T12:23:02.988Z,13.24
2017-10-05T12:24:03.041Z,13.03
2017-10-05T12:25:02.984Z,12.86
2017-10-05T12:26:03.034Z,12.76
2017-10-05T12:27:03.017Z,12.73
2017-10-05T12:28:02.965Z,12.82
2017-10-05T12:29:02.991Z,12.98
2017-10-05T12:30:03.036Z,13.07
2017-10-05T12:31:02.972Z,13.07
2017-10-05T12:32:02.994Z,13.21
2017-10-05T12:33:02.975Z,13.34
2017-10-05T12:34:03.000Z,13.35
2017-10-05T12:35:02.995Z,13.47
2017-10-05T12:36:02.968Z,13.56
2017-10-05T12:37:02.996Z,13.65
2017-10-05T12:38:03.000Z,13.59
2017-10-05T12:39:03.027Z,13.51
2017-10-05T12:40:02.949Z,13.49
2017-10-05T12:41:02.971Z,13.42
2017-10-05T12:42:02.963Z,13.35
2017-10-05T12:43:03.032Z,13.29
2017-10-05T12:44:03.039Z,13.34
2017-10-05T12:45:03.039Z,13.38
2017-10-05T12:46:02.949Z,13.29
2017-10-05T12:47:03.028Z,13.29
2017-10-05T12:48:02.950Z,13.23
2017-10-05T12:49:03.014Z,13.21
2017-10-05T12:50:03.051Z,13.18
2017-10-05T12:51:03.056Z,13.16
2017-10-05T12:52:02.967Z,13.16